ACA852 CYYZ-EGLL
Flight info
| Callsign | ACA852 |
|---|---|
| Flight time | N/A |
| Altitude | 33000 |
| Route | VERDO7 IPTOS Q921 AGLUK DCT BAREE N581A TUDEP/M084F350 NATT NETKI/N0482F350 DCT BOFUM Q37 MALUD Q38 NUGRA |
| Aircraft | B77W/H-SDE1E2E3FGHIJ2J3J4J5M1RWXY/LB1D1 |
Departure
| Time | N/A |
|---|---|
| Airport | Toronto Pearson International Airport (CYYZ) |
Arrival
| Time | 2026-05-06 04:59 |
|---|---|
| Airport | London Heathrow Airport (EGLL) |
| Time | Latitude | Longitude | Altitude | Speed | Heading |
|---|---|---|---|---|---|
| 2026-05-06 04:21 | 53.53331 | -5.37789 | 35042 ft | 493 kts | 91° |
| 2026-05-06 04:22 | 53.53153 | -5.26219 | 35041 ft | 493 kts | 92° |
| 2026-05-06 04:23 | 53.52703 | -5.09027 | 35035 ft | 493 kts | 93° |
| 2026-05-06 04:23 | 53.52622 | -5.06581 | 35035 ft | 493 kts | 93° |
| 2026-05-06 04:24 | 53.52516 | -5.03437 | 35034 ft | 492 kts | 94° |
| 2026-05-06 04:24 | 53.52397 | -5.00017 | 35036 ft | 492 kts | 94° |
| 2026-05-06 04:25 | 53.51979 | -4.88708 | 35783 ft | 458 kts | 90° |
| 2026-05-06 04:25 | 53.51726 | -4.83496 | 36007 ft | 453 kts | 100° |
| 2026-05-06 04:25 | 53.50543 | -4.78527 | 35309 ft | 462 kts | 112° |
| 2026-05-06 04:25 | 53.49543 | -4.73395 | 34990 ft | 471 kts | 97° |
| 2026-05-06 04:26 | 53.49521 | -4.67873 | 35055 ft | 476 kts | 84° |
| 2026-05-06 04:26 | 53.50407 | -4.56689 | 35030 ft | 489 kts | 85° |
| 2026-05-06 04:27 | 53.50571 | -4.45166 | 35039 ft | 497 kts | 92° |
| 2026-05-06 04:27 | 53.50141 | -4.33649 | 35040 ft | 498 kts | 95° |
| 2026-05-06 04:28 | 53.49633 | -4.22062 | 35030 ft | 497 kts | 94° |
| 2026-05-06 04:28 | 53.49175 | -4.10501 | 35035 ft | 495 kts | 94° |
| 2026-05-06 04:29 | 53.48642 | -3.99019 | 35040 ft | 492 kts | 98° |
| 2026-05-06 04:29 | 53.47037 | -3.87974 | 35045 ft | 490 kts | 110° |
| 2026-05-06 04:30 | 53.44702 | -3.77238 | 35049 ft | 490 kts | 110° |
| 2026-05-06 04:30 | 53.42469 | -3.66437 | 35047 ft | 490 kts | 110° |
| 2026-05-06 04:31 | 53.40011 | -3.55792 | 35039 ft | 489 kts | 116° |
| 2026-05-06 04:31 | 53.36979 | -3.45696 | 35047 ft | 489 kts | 117° |
| 2026-05-06 04:32 | 53.34019 | -3.35459 | 35047 ft | 489 kts | 116° |
| 2026-05-06 04:32 | 53.31062 | -3.25217 | 35044 ft | 489 kts | 116° |
| 2026-05-06 04:33 | 53.28087 | -3.14992 | 35046 ft | 489 kts | 116° |
| 2026-05-06 04:33 | 53.25102 | -3.04775 | 35046 ft | 490 kts | 116° |
| 2026-05-06 04:34 | 53.22129 | -2.94637 | 35046 ft | 490 kts | 117° |
| 2026-05-06 04:34 | 53.19127 | -2.84444 | 35046 ft | 489 kts | 117° |
| 2026-05-06 04:35 | 53.16121 | -2.74276 | 35047 ft | 489 kts | 117° |
| 2026-05-06 04:35 | 53.13106 | -2.64121 | 35048 ft | 489 kts | 117° |
| 2026-05-06 04:36 | 53.10108 | -2.54068 | 35045 ft | 488 kts | 117° |
| 2026-05-06 04:36 | 53.07081 | -2.43962 | 35045 ft | 488 kts | 117° |
| 2026-05-06 04:37 | 53.04038 | -2.33908 | 35038 ft | 483 kts | 120° |
| 2026-05-06 04:37 | 53.02078 | -2.29428 | 35036 ft | 480 kts | 137° |
| 2026-05-06 04:37 | 52.99379 | -2.26237 | 35045 ft | 474 kts | 153° |
| 2026-05-06 04:38 | 52.93575 | -2.20864 | 35049 ft | 483 kts | 149° |
| 2026-05-06 04:38 | 52.87990 | -2.14878 | 34756 ft | 480 kts | 147° |
| 2026-05-06 04:38 | 52.85191 | -2.11858 | 34396 ft | 482 kts | 148° |
| 2026-05-06 04:39 | 52.82369 | -2.08849 | 34026 ft | 483 kts | 148° |
| 2026-05-06 04:39 | 52.79537 | -2.05864 | 33665 ft | 483 kts | 148° |
| 2026-05-06 04:39 | 52.76689 | -2.02896 | 33180 ft | 485 kts | 148° |
| 2026-05-06 04:39 | 52.73817 | -1.99918 | 32224 ft | 489 kts | 148° |
| 2026-05-06 04:40 | 52.70956 | -1.96960 | 31476 ft | 479 kts | 148° |
| 2026-05-06 04:40 | 52.68162 | -1.94076 | 30765 ft | 471 kts | 148° |
| 2026-05-06 04:40 | 52.65436 | -1.91265 | 30229 ft | 466 kts | 148° |
| 2026-05-06 04:40 | 52.62703 | -1.88449 | 29757 ft | 460 kts | 148° |
| 2026-05-06 04:41 | 52.60007 | -1.85674 | 29234 ft | 455 kts | 148° |
| 2026-05-06 04:41 | 52.57335 | -1.82928 | 28661 ft | 451 kts | 148° |
| 2026-05-06 04:41 | 52.54678 | -1.80202 | 28058 ft | 449 kts | 148° |
| 2026-05-06 04:41 | 52.52038 | -1.77495 | 27489 ft | 446 kts | 148° |
| 2026-05-06 04:42 | 52.49418 | -1.74814 | 26932 ft | 442 kts | 149° |
| 2026-05-06 04:42 | 52.46818 | -1.72156 | 26375 ft | 438 kts | 149° |
| 2026-05-06 04:42 | 52.44274 | -1.69560 | 25849 ft | 435 kts | 149° |
| 2026-05-06 04:42 | 52.41714 | -1.66951 | 25309 ft | 432 kts | 149° |
| 2026-05-06 04:43 | 52.39170 | -1.64363 | 24781 ft | 429 kts | 149° |
| 2026-05-06 04:43 | 52.36645 | -1.61797 | 24238 ft | 425 kts | 149° |
| 2026-05-06 04:43 | 52.34142 | -1.59255 | 23724 ft | 422 kts | 149° |
| 2026-05-06 04:43 | 52.31653 | -1.56733 | 23183 ft | 419 kts | 149° |
| 2026-05-06 04:44 | 52.29189 | -1.54236 | 22674 ft | 416 kts | 149° |
| 2026-05-06 04:44 | 52.26735 | -1.51754 | 22151 ft | 413 kts | 149° |
| 2026-05-06 04:44 | 52.24307 | -1.49300 | 21640 ft | 409 kts | 149° |
| 2026-05-06 04:44 | 52.21891 | -1.46863 | 21126 ft | 407 kts | 149° |
| 2026-05-06 04:45 | 52.19622 | -1.44251 | 20598 ft | 404 kts | 142° |
| 2026-05-06 04:45 | 52.17494 | -1.41286 | 20195 ft | 401 kts | 139° |
| 2026-05-06 04:45 | 52.15406 | -1.38207 | 20051 ft | 407 kts | 139° |
| 2026-05-06 04:45 | 52.13305 | -1.35125 | 20011 ft | 404 kts | 139° |
| 2026-05-06 04:46 | 52.11214 | -1.32116 | 19966 ft | 398 kts | 140° |
| 2026-05-06 04:46 | 52.09157 | -1.29204 | 19386 ft | 388 kts | 140° |
| 2026-05-06 04:46 | 52.07124 | -1.26360 | 18624 ft | 384 kts | 140° |
| 2026-05-06 04:46 | 52.05080 | -1.23526 | 17958 ft | 388 kts | 140° |
| 2026-05-06 04:47 | 52.03054 | -1.20720 | 17391 ft | 388 kts | 140° |
| 2026-05-06 04:47 | 52.01008 | -1.17888 | 16907 ft | 385 kts | 140° |
| 2026-05-06 04:47 | 51.99004 | -1.15117 | 16289 ft | 374 kts | 140° |
| 2026-05-06 04:47 | 51.97024 | -1.12385 | 15510 ft | 375 kts | 140° |
| 2026-05-06 04:48 | 51.95038 | -1.09643 | 15274 ft | 378 kts | 140° |
| 2026-05-06 04:48 | 51.93032 | -1.06878 | 15003 ft | 379 kts | 140° |
| 2026-05-06 04:48 | 51.91022 | -1.04112 | 14475 ft | 380 kts | 140° |
| 2026-05-06 04:48 | 51.89014 | -1.01353 | 14012 ft | 377 kts | 140° |
| 2026-05-06 04:49 | 51.87055 | -0.98664 | 13660 ft | 370 kts | 140° |
| 2026-05-06 04:49 | 51.85119 | -0.96018 | 13161 ft | 360 kts | 142° |
| 2026-05-06 04:49 | 51.82989 | -0.93863 | 12511 ft | 363 kts | 155° |
| 2026-05-06 04:49 | 51.80641 | -0.92391 | 12016 ft | 361 kts | 162° |
| 2026-05-06 04:50 | 51.78234 | -0.91313 | 11549 ft | 358 kts | 167° |
| 2026-05-06 04:50 | 51.75803 | -0.90675 | 10973 ft | 353 kts | 179° |
| 2026-05-06 04:50 | 51.73391 | -0.91159 | 10604 ft | 344 kts | 195° |
| 2026-05-06 04:50 | 51.71152 | -0.92277 | 10512 ft | 327 kts | 199° |
| 2026-05-06 04:51 | 51.69070 | -0.93455 | 10322 ft | 308 kts | 200° |
| 2026-05-06 04:51 | 51.67122 | -0.94703 | 9981 ft | 295 kts | 210° |
| 2026-05-06 04:51 | 51.65479 | -0.96492 | 9674 ft | 283 kts | 218° |
| 2026-05-06 04:51 | 51.63859 | -0.98171 | 9345 ft | 273 kts | 200° |
| 2026-05-06 04:52 | 51.62029 | -0.98583 | 9003 ft | 264 kts | 172° |
| 2026-05-06 04:52 | 51.60344 | -0.97621 | 8610 ft | 255 kts | 149° |
| 2026-05-06 04:52 | 51.58822 | -0.96207 | 8134 ft | 251 kts | 150° |
| 2026-05-06 04:52 | 51.57298 | -0.94842 | 7682 ft | 249 kts | 151° |
| 2026-05-06 04:53 | 51.55786 | -0.93515 | 7226 ft | 247 kts | 151° |
| 2026-05-06 04:53 | 51.54287 | -0.92198 | 6724 ft | 245 kts | 150° |
| 2026-05-06 04:53 | 51.52796 | -0.90877 | 6278 ft | 243 kts | 150° |
| 2026-05-06 04:53 | 51.51344 | -0.89586 | 5832 ft | 241 kts | 150° |
| 2026-05-06 04:54 | 51.49883 | -0.88293 | 5376 ft | 239 kts | 150° |
| 2026-05-06 04:54 | 51.48570 | -0.86709 | 4867 ft | 236 kts | 127° |
| 2026-05-06 04:54 | 51.47930 | -0.84354 | 4339 ft | 231 kts | 94° |
| 2026-05-06 04:54 | 51.47861 | -0.81819 | 3893 ft | 228 kts | 92° |
| 2026-05-06 04:55 | 51.47713 | -0.79274 | 3552 ft | 229 kts | 92° |
| 2026-05-06 04:55 | 51.47650 | -0.76774 | 3394 ft | 220 kts | 89° |
| 2026-05-06 04:55 | 51.47653 | -0.74370 | 3191 ft | 214 kts | 88° |
| 2026-05-06 04:55 | 51.47663 | -0.72000 | 2919 ft | 210 kts | 88° |
| 2026-05-06 04:56 | 51.47672 | -0.69711 | 2697 ft | 205 kts | 88° |
| 2026-05-06 04:56 | 51.47679 | -0.67422 | 2380 ft | 204 kts | 88° |
| 2026-05-06 04:56 | 51.47688 | -0.65209 | 2102 ft | 192 kts | 88° |
| 2026-05-06 04:56 | 51.47695 | -0.63170 | 1885 ft | 176 kts | 88° |
| 2026-05-06 04:57 | 51.47701 | -0.61283 | 1637 ft | 165 kts | 88° |
| 2026-05-06 04:57 | 51.47710 | -0.59431 | 1437 ft | 167 kts | 88° |
| 2026-05-06 04:57 | 51.47716 | -0.57620 | 1200 ft | 158 kts | 88° |
| 2026-05-06 04:57 | 51.47722 | -0.55916 | 1012 ft | 148 kts | 88° |
| 2026-05-06 04:58 | 51.47728 | -0.54258 | 827 ft | 151 kts | 88° |
| 2026-05-06 04:58 | 51.47734 | -0.52571 | 624 ft | 151 kts | 88° |
| 2026-05-06 04:58 | 51.47741 | -0.50896 | 413 ft | 150 kts | 88° |
| 2026-05-06 04:58 | 51.47748 | -0.49257 | 218 ft | 148 kts | 89° |
| 2026-05-06 04:59 | 51.47754 | -0.47614 | 98 ft | 143 kts | 89° |
| 2026-05-06 04:59 | 51.47760 | -0.46193 | 92 ft | 104 kts | 90° |
| 2026-05-06 04:59 | 51.47762 | -0.45329 | 92 ft | 51 kts | 89° |
| 2026-05-06 04:59 | 51.47764 | -0.45018 | 94 ft | 17 kts | 90° |
| 2026-05-06 05:00 | 51.47734 | -0.44868 | 94 ft | 10 kts | 135° |
| 2026-05-06 05:00 | 51.47684 | -0.44823 | 92 ft | 8 kts | 152° |
| 2026-05-06 05:00 | 51.47626 | -0.44788 | 93 ft | 9 kts | 185° |
| 2026-05-06 05:00 | 51.47598 | -0.44874 | 91 ft | 10 kts | 270° |
| 2026-05-06 05:01 | 51.47598 | -0.44980 | 91 ft | 10 kts | 270° |
| 2026-05-06 05:01 | 51.47598 | -0.45085 | 94 ft | 9 kts | 270° |
| 2026-05-06 05:01 | 51.47573 | -0.45170 | 94 ft | 9 kts | 207° |
| 2026-05-06 05:01 | 51.47516 | -0.45142 | 92 ft | 9 kts | 126° |
| 2026-05-06 05:02 | 51.47509 | -0.45039 | 92 ft | 9 kts | 90° |
| 2026-05-06 05:02 | 51.47507 | -0.44934 | 92 ft | 9 kts | 92° |
| 2026-05-06 05:02 | 51.47504 | -0.44829 | 91 ft | 10 kts | 84° |
| 2026-05-06 05:02 | 51.47511 | -0.44746 | 91 ft | 7 kts | 83° |
| 2026-05-06 05:03 | 51.47513 | -0.44669 | 94 ft | 7 kts | 96° |
| 2026-05-06 05:03 | 51.47498 | -0.44594 | 95 ft | 7 kts | 122° |
| 2026-05-06 05:03 | 51.47455 | -0.44560 | 91 ft | 7 kts | 178° |
| 2026-05-06 05:03 | 51.47404 | -0.44560 | 94 ft | 8 kts | 180° |
| 2026-05-06 05:04 | 51.47350 | -0.44559 | 94 ft | 8 kts | 180° |
| 2026-05-06 05:04 | 51.47293 | -0.44558 | 94 ft | 8 kts | 179° |
| 2026-05-06 05:04 | 51.47235 | -0.44558 | 91 ft | 8 kts | 180° |
| 2026-05-06 05:04 | 51.47176 | -0.44558 | 91 ft | 8 kts | 180° |
| 2026-05-06 05:05 | 51.47118 | -0.44557 | 91 ft | 8 kts | 180° |
| 2026-05-06 05:05 | 51.47067 | -0.44557 | 91 ft | 5 kts | 179° |
| 2026-05-06 05:05 | 51.47033 | -0.44555 | 95 ft | 5 kts | 172° |
| 2026-05-06 05:05 | 51.47017 | -0.44508 | 91 ft | 6 kts | 90° |
| 2026-05-06 05:06 | 51.47018 | -0.44454 | 91 ft | 4 kts | 89° |
| 2026-05-06 05:06 | 51.47018 | -0.44429 | 93 ft | 2 kts | 89° |
| 2026-05-06 05:06 | 51.47018 | -0.44413 | 91 ft | 0 kts | 89° |